createdAt,value
2022-12-27T00:02:02.679Z,5.40
2022-12-27T00:04:29.450Z,5.40
2022-12-27T00:06:56.167Z,5.40
2022-12-27T00:09:23.007Z,5.50
2022-12-27T00:11:53.540Z,5.40
2022-12-27T00:14:23.114Z,5.40
2022-12-27T00:16:49.871Z,5.40
2022-12-27T00:19:17.139Z,5.40
2022-12-27T00:21:43.887Z,5.40
2022-12-27T00:26:51.611Z,5.40
2022-12-27T00:29:18.728Z,5.40
2022-12-27T00:31:45.514Z,5.30
2022-12-27T00:34:12.330Z,5.40
2022-12-27T00:36:38.999Z,5.40
2022-12-27T00:39:09.109Z,5.40
2022-12-27T00:41:35.928Z,5.40
2022-12-27T00:44:02.723Z,5.40
2022-12-27T00:46:29.586Z,5.40
2022-12-27T00:48:57.568Z,5.40
2022-12-27T00:51:24.680Z,5.40
2022-12-27T00:53:52.088Z,5.40
2022-12-27T00:56:21.330Z,5.40
2022-12-27T00:58:48.091Z,5.40
2022-12-27T01:01:17.451Z,5.40
2022-12-27T01:03:44.399Z,5.40
2022-12-27T01:06:13.124Z,5.40
2022-12-27T01:08:40.025Z,5.40
2022-12-27T01:11:07.370Z,5.50
2022-12-27T01:13:34.097Z,5.50
2022-12-27T01:16:00.793Z,5.50
2022-12-27T01:18:27.696Z,5.40
2022-12-27T01:20:54.375Z,5.50
2022-12-27T01:23:21.072Z,5.40
2022-12-27T01:25:47.795Z,5.60
2022-12-27T01:28:14.507Z,5.30
2022-12-27T01:30:41.174Z,5.30
2022-12-27T01:33:07.879Z,5.30
2022-12-27T01:35:34.630Z,5.30
2022-12-27T01:38:01.323Z,5.30
2022-12-27T01:40:28.089Z,5.30
2022-12-27T01:42:55.720Z,5.30
2022-12-27T01:45:26.777Z,5.30
2022-12-27T01:48:09.678Z,5.30
2022-12-27T01:50:45.169Z,5.30
2022-12-27T01:53:21.468Z,5.30
2022-12-27T01:55:58.976Z,5.40
2022-12-27T01:58:32.644Z,5.40
2022-12-27T02:00:59.491Z,5.40
2022-12-27T02:03:30.738Z,5.40
2022-12-27T02:05:58.160Z,5.40
2022-12-27T02:08:42.657Z,5.40
2022-12-27T02:11:09.535Z,5.40
2022-12-27T02:13:38.636Z,5.30
2022-12-27T02:16:16.306Z,5.30
2022-12-27T02:18:43.550Z,5.30
2022-12-27T02:21:39.928Z,5.20
2022-12-27T02:24:29.495Z,5.10
2022-12-27T02:27:34.593Z,5.00
2022-12-27T02:30:12.971Z,5.00
2022-12-27T02:32:56.470Z,4.90
2022-12-27T02:35:45.083Z,4.90
2022-12-27T02:38:15.203Z,4.90
2022-12-27T02:41:01.072Z,4.80
2022-12-27T02:43:46.895Z,4.80
2022-12-27T02:46:35.558Z,4.80
2022-12-27T02:49:20.786Z,4.80
2022-12-27T02:52:29.039Z,4.70
2022-12-27T02:55:18.964Z,4.70
2022-12-27T02:58:03.958Z,4.70
2022-12-27T03:00:49.131Z,4.70
2022-12-27T03:03:29.035Z,4.70
2022-12-27T03:06:20.725Z,4.60
2022-12-27T03:09:00.010Z,4.60
2022-12-27T03:11:45.897Z,4.60
2022-12-27T03:14:58.955Z,4.60
2022-12-27T03:18:02.909Z,4.60
2022-12-27T03:20:47.960Z,4.60
2022-12-27T03:23:33.212Z,4.60
2022-12-27T03:25:59.977Z,4.50
2022-12-27T03:28:47.197Z,4.60
2022-12-27T03:31:55.013Z,4.50
2022-12-27T03:34:31.935Z,4.60
2022-12-27T03:37:20.658Z,4.60
2022-12-27T03:39:53.087Z,4.60
2022-12-27T03:42:45.513Z,4.50
2022-12-27T03:45:12.247Z,4.40
2022-12-27T03:47:38.947Z,4.40
2022-12-27T03:50:30.086Z,4.30
2022-12-27T03:53:15.603Z,4.30
2022-12-27T03:55:42.428Z,4.20
2022-12-27T03:58:09.115Z,4.20
2022-12-27T04:00:35.849Z,4.20
2022-12-27T04:03:02.646Z,4.20
2022-12-27T04:05:29.507Z,4.30
2022-12-27T04:08:15.077Z,4.30
2022-12-27T04:11:04.106Z,4.40
2022-12-27T04:13:49.457Z,4.40
2022-12-27T04:16:35.099Z,4.40
2022-12-27T04:19:20.587Z,4.40
2022-12-27T04:22:06.144Z,4.40
2022-12-27T04:24:51.595Z,4.40
2022-12-27T04:27:36.862Z,4.40
2022-12-27T04:30:22.727Z,4.30
2022-12-27T04:33:08.108Z,4.40
2022-12-27T04:35:35.104Z,4.30
2022-12-27T04:38:01.849Z,4.30
2022-12-27T04:40:47.318Z,4.30
2022-12-27T04:43:32.725Z,4.40
2022-12-27T04:46:18.330Z,4.30
2022-12-27T04:49:03.627Z,4.30
2022-12-27T04:51:49.107Z,4.30
2022-12-27T04:54:42.897Z,4.20
2022-12-27T04:57:09.666Z,4.20
2022-12-27T04:59:55.249Z,4.20
2022-12-27T05:02:22.149Z,4.20
2022-12-27T05:04:49.042Z,4.20
2022-12-27T05:07:34.476Z,4.20
2022-12-27T05:10:20.903Z,4.20
2022-12-27T05:13:06.226Z,4.20
2022-12-27T05:15:34.040Z,4.10
2022-12-27T05:18:00.716Z,4.10
2022-12-27T05:20:27.807Z,4.10
2022-12-27T05:23:13.029Z,4.10
2022-12-27T05:25:43.475Z,4.10
2022-12-27T05:28:10.944Z,4.10
2022-12-27T05:30:38.476Z,4.10
2022-12-27T05:33:05.257Z,4.10
2022-12-27T05:35:32.102Z,4.10
2022-12-27T05:37:58.790Z,4.10
2022-12-27T05:40:25.657Z,4.10
2022-12-27T05:42:52.414Z,4.10
2022-12-27T05:45:19.465Z,4.00
2022-12-27T05:47:46.271Z,4.00
2022-12-27T05:50:12.950Z,3.90
2022-12-27T05:52:41.262Z,3.90
2022-12-27T05:55:08.707Z,3.90
2022-12-27T05:57:35.459Z,3.90
2022-12-27T06:00:02.729Z,3.80
2022-12-27T06:02:29.587Z,3.80
2022-12-27T06:04:56.437Z,3.80
2022-12-27T06:07:23.192Z,3.80
2022-12-27T06:09:50.042Z,3.90
2022-12-27T06:12:16.709Z,4.10
2022-12-27T06:14:43.621Z,3.90
2022-12-27T06:17:10.291Z,3.90
2022-12-27T06:19:36.968Z,4.00
2022-12-27T06:22:03.821Z,4.10
2022-12-27T06:24:30.502Z,4.30
2022-12-27T06:26:57.167Z,4.20
2022-12-27T06:29:23.912Z,4.40
2022-12-27T06:31:50.730Z,4.40
2022-12-27T06:34:17.471Z,4.50
2022-12-27T06:36:49.920Z,4.50
2022-12-27T06:39:17.925Z,4.60
2022-12-27T06:41:44.719Z,4.70
2022-12-27T06:44:11.463Z,4.70
2022-12-27T06:46:38.195Z,4.80
2022-12-27T06:49:04.977Z,4.80
2022-12-27T06:51:32.134Z,4.90
2022-12-27T06:53:58.839Z,4.90
2022-12-27T06:56:25.576Z,4.90
2022-12-27T06:58:52.405Z,5.00
2022-12-27T07:01:21.258Z,5.00
2022-12-27T07:03:51.898Z,5.10
2022-12-27T07:06:18.865Z,5.10
2022-12-27T07:08:46.166Z,5.10
2022-12-27T07:11:13.271Z,5.20
2022-12-27T07:13:44.301Z,5.20
2022-12-27T07:16:12.706Z,5.20
2022-12-27T07:18:39.667Z,5.30
2022-12-27T07:21:07.573Z,5.30
2022-12-27T07:23:34.352Z,5.30
2022-12-27T07:26:05.514Z,5.30
2022-12-27T07:28:32.269Z,5.40
2022-12-27T07:30:59.003Z,5.50
2022-12-27T07:33:26.320Z,5.50
2022-12-27T07:36:02.413Z,5.50
2022-12-27T07:38:29.157Z,5.60
2022-12-27T07:40:59.881Z,5.60
2022-12-27T07:43:29.335Z,5.60
2022-12-27T07:45:56.110Z,5.70
2022-12-27T07:48:22.885Z,5.70
2022-12-27T07:50:56.158Z,5.80
2022-12-27T07:53:22.896Z,5.80
2022-12-27T07:55:51.163Z,5.90
2022-12-27T07:58:18.418Z,5.90
2022-12-27T08:00:49.429Z,5.90
2022-12-27T08:03:16.381Z,6.00
2022-12-27T08:05:49.570Z,6.00
2022-12-27T08:08:16.801Z,6.10
2022-12-27T08:10:43.747Z,6.00
2022-12-27T08:13:10.481Z,6.10
2022-12-27T08:15:37.739Z,6.10
2022-12-27T08:18:04.593Z,6.10
2022-12-27T08:20:31.401Z,6.10
2022-12-27T08:22:58.129Z,6.10
2022-12-27T08:25:25.134Z,6.10
2022-12-27T08:27:51.868Z,6.10
2022-12-27T08:30:18.853Z,6.10
2022-12-27T08:32:45.554Z,6.10
2022-12-27T08:35:50.359Z,6.20
2022-12-27T08:38:02.191Z,6.20
2022-12-27T08:40:33.316Z,6.20
2022-12-27T08:43:00.059Z,6.20
2022-12-27T08:45:26.815Z,6.20
2022-12-27T08:47:53.540Z,6.30
2022-12-27T08:50:20.349Z,6.30
2022-12-27T08:52:47.120Z,6.30
2022-12-27T08:55:13.880Z,6.30
2022-12-27T08:57:40.669Z,6.40
2022-12-27T09:00:09.990Z,6.30
2022-12-27T09:02:37.581Z,6.40
2022-12-27T09:05:04.610Z,6.40
2022-12-27T09:07:31.745Z,6.50
2022-12-27T09:09:58.654Z,6.50
2022-12-27T09:12:25.408Z,6.50
2022-12-27T09:14:52.156Z,6.60
2022-12-27T09:17:18.873Z,6.70
2022-12-27T09:19:45.771Z,6.70
2022-12-27T09:22:13.962Z,6.80
2022-12-27T09:24:40.677Z,6.80
2022-12-27T09:27:09.210Z,6.90
2022-12-27T09:29:35.916Z,7.00
2022-12-27T09:32:02.673Z,7.00
2022-12-27T09:34:29.389Z,7.10
2022-12-27T09:36:57.180Z,7.10
2022-12-27T09:39:23.920Z,7.20
2022-12-27T09:45:08.937Z,7.30
2022-12-27T09:47:53.677Z,7.40
2022-12-27T09:50:33.735Z,7.50
2022-12-27T09:53:03.549Z,7.50
2022-12-27T09:55:42.226Z,7.60
2022-12-27T09:58:24.122Z,7.70
2022-12-27T10:00:51.369Z,7.70
2022-12-27T10:03:20.036Z,7.70
2022-12-27T10:05:48.188Z,7.80
2022-12-27T10:08:34.743Z,7.80
2022-12-27T10:11:04.163Z,7.80
2022-12-27T10:13:53.265Z,7.80
2022-12-27T10:16:37.306Z,7.80
2022-12-27T10:19:44.956Z,7.90
2022-12-27T10:22:36.771Z,7.90
2022-12-27T10:25:05.488Z,7.80
2022-12-27T10:27:32.274Z,7.90
2022-12-27T10:29:59.623Z,7.90
2022-12-27T10:32:26.514Z,7.90
2022-12-27T10:34:59.959Z,8.00
2022-12-27T10:37:26.832Z,8.10
2022-12-27T10:39:53.610Z,8.10
2022-12-27T10:42:23.053Z,8.20
2022-12-27T10:44:49.846Z,8.20
2022-12-27T10:47:16.556Z,8.20
2022-12-27T10:49:44.171Z,8.30
2022-12-27T10:52:21.826Z,8.30
2022-12-27T10:54:57.821Z,8.40
2022-12-27T10:57:27.440Z,8.50
2022-12-27T11:00:13.248Z,8.50
2022-12-27T11:02:54.218Z,8.70
2022-12-27T11:05:31.309Z,8.70
2022-12-27T11:07:58.170Z,8.70
2022-12-27T11:10:31.212Z,8.70
2022-12-27T11:13:05.280Z,8.80
2022-12-27T11:15:34.055Z,8.70
2022-12-27T11:18:04.646Z,8.70
2022-12-27T11:20:32.703Z,8.80
2022-12-27T11:23:04.132Z,8.80
2022-12-27T11:25:31.029Z,8.80
2022-12-27T11:28:26.652Z,8.90
2022-12-27T11:31:04.196Z,8.90
2022-12-27T11:33:39.870Z,8.90
2022-12-27T11:36:07.630Z,9.00
2022-12-27T11:38:35.117Z,9.00
2022-12-27T11:41:03.176Z,9.00
2022-12-27T11:43:32.950Z,9.00
2022-12-27T11:45:59.719Z,9.00
2022-12-27T11:48:31.983Z,9.00
2022-12-27T11:51:41.181Z,9.00
2022-12-27T11:54:23.096Z,9.10
2022-12-27T11:57:00.709Z,9.20
2022-12-27T11:59:39.571Z,9.20
2022-12-27T12:02:51.407Z,9.30
2022-12-27T12:05:41.811Z,9.30
2022-12-27T12:08:27.234Z,9.40
2022-12-27T12:11:22.798Z,9.40
2022-12-27T12:14:15.504Z,9.40
2022-12-27T12:16:54.260Z,9.50
2022-12-27T12:19:32.932Z,9.60
2022-12-27T12:22:38.572Z,9.60
2022-12-27T12:25:29.141Z,9.60
2022-12-27T12:28:47.327Z,9.80
2022-12-27T12:31:39.171Z,9.90
2022-12-27T12:34:17.878Z,9.90
2022-12-27T12:37:23.403Z,10.10
2022-12-27T12:39:56.025Z,10.10
2022-12-27T12:42:43.361Z,10.10
2022-12-27T12:45:35.426Z,10.10
2022-12-27T12:48:12.152Z,10.10
2022-12-27T12:50:52.524Z,10.10
2022-12-27T12:54:09.985Z,10.00
2022-12-27T12:56:58.515Z,10.10
2022-12-27T12:59:49.750Z,10.20
2022-12-27T13:02:34.558Z,10.10
2022-12-27T13:05:18.780Z,10.20
2022-12-27T13:08:00.887Z,10.20
2022-12-27T13:10:39.521Z,10.20
2022-12-27T13:13:12.240Z,10.20
2022-12-27T13:16:03.016Z,10.20
2022-12-27T13:18:48.622Z,10.10
2022-12-27T13:21:41.990Z,10.10
2022-12-27T13:24:39.052Z,10.10
2022-12-27T13:27:27.268Z,10.10
2022-12-27T13:30:07.427Z,10.10
2022-12-27T13:33:05.869Z,10.10
2022-12-27T13:36:01.996Z,10.10
2022-12-27T13:38:56.005Z,10.10
2022-12-27T13:41:55.202Z,10.20
2022-12-27T13:44:52.627Z,10.20
2022-12-27T13:47:35.577Z,10.20
2022-12-27T13:50:15.443Z,10.20
2022-12-27T13:53:23.776Z,10.20
2022-12-27T13:56:52.029Z,10.30
2022-12-27T13:59:12.749Z,10.30
2022-12-27T14:02:12.270Z,10.40
2022-12-27T14:04:42.352Z,10.30
2022-12-27T14:07:29.546Z,10.40
2022-12-27T14:10:06.868Z,10.40
2022-12-27T14:12:39.737Z,10.40
2022-12-27T14:15:07.469Z,10.40
2022-12-27T14:17:40.983Z,10.40
2022-12-27T14:20:11.543Z,10.20
2022-12-27T14:23:05.778Z,10.20
2022-12-27T14:25:48.347Z,10.10
2022-12-27T14:28:59.509Z,10.10
2022-12-27T14:32:15.927Z,10.20
2022-12-27T14:35:20.151Z,10.10
2022-12-27T14:38:08.510Z,10.10
2022-12-27T14:40:57.329Z,10.00
2022-12-27T14:43:30.137Z,9.90
2022-12-27T14:46:24.424Z,9.90
2022-12-27T14:49:12.950Z,9.90
2022-12-27T14:52:03.446Z,9.90
2022-12-27T14:55:15.993Z,10.00
2022-12-27T14:57:54.691Z,10.00
2022-12-27T15:00:24.929Z,10.00
2022-12-27T15:03:39.533Z,10.00
2022-12-27T15:06:19.894Z,10.00
2022-12-27T15:09:07.003Z,10.00
2022-12-27T15:11:47.954Z,10.00
2022-12-27T15:14:33.259Z,10.00
2022-12-27T15:17:14.799Z,10.00
2022-12-27T15:20:24.876Z,9.90
2022-12-27T15:22:55.988Z,10.00
2022-12-27T15:25:54.152Z,10.00
2022-12-27T15:28:30.169Z,9.90
2022-12-27T15:31:10.449Z,9.90
2022-12-27T15:33:56.784Z,9.90
2022-12-27T15:36:37.345Z,9.90
2022-12-27T15:39:04.353Z,9.90
2022-12-27T15:41:54.306Z,10.00
2022-12-27T15:44:44.769Z,9.90
2022-12-27T15:47:20.318Z,9.90
2022-12-27T15:50:03.511Z,9.90
2022-12-27T15:53:00.423Z,9.90
2022-12-27T15:55:49.173Z,9.90
2022-12-27T15:58:20.563Z,9.90
2022-12-27T16:01:22.220Z,9.90
2022-12-27T16:03:52.461Z,9.90
2022-12-27T16:06:49.235Z,9.80
2022-12-27T16:09:25.399Z,9.70
2022-12-27T16:12:07.623Z,9.60
2022-12-27T16:14:38.892Z,9.50
2022-12-27T16:17:20.967Z,9.40
2022-12-27T16:19:59.670Z,9.40
2022-12-27T16:22:41.801Z,9.30
2022-12-27T16:25:33.616Z,9.30
2022-12-27T16:28:08.015Z,9.30
2022-12-27T16:30:42.856Z,9.20
2022-12-27T16:33:31.432Z,9.20
2022-12-27T16:36:16.364Z,9.10
2022-12-27T16:38:56.184Z,9.10
2022-12-27T16:41:25.664Z,9.10
2022-12-27T16:44:01.787Z,9.00
2022-12-27T16:46:32.735Z,9.00
2022-12-27T16:49:01.541Z,9.00
2022-12-27T16:51:34.245Z,9.00
2022-12-27T16:54:21.613Z,9.00
2022-12-27T16:56:49.278Z,9.00
2022-12-27T16:59:54.802Z,9.00
2022-12-27T17:02:42.082Z,9.00
2022-12-27T17:05:14.596Z,9.00
2022-12-27T17:07:50.855Z,9.00
2022-12-27T17:10:45.922Z,9.00
2022-12-27T17:13:36.949Z,9.00
2022-12-27T17:16:20.104Z,9.00
2022-12-27T17:18:51.325Z,9.00
2022-12-27T17:21:29.859Z,8.90
2022-12-27T17:23:59.820Z,8.90
2022-12-27T17:26:51.547Z,8.90
2022-12-27T17:29:36.854Z,8.90
2022-12-27T17:32:20.532Z,8.80
2022-12-27T17:35:14.452Z,8.90
2022-12-27T17:37:41.273Z,8.80
2022-12-27T17:40:30.966Z,8.70
2022-12-27T17:43:45.371Z,8.70
2022-12-27T17:46:43.084Z,8.60
2022-12-27T17:49:10.869Z,8.60
2022-12-27T17:51:40.473Z,8.60
2022-12-27T17:54:43.437Z,8.60
2022-12-27T17:57:32.565Z,8.60
2022-12-27T17:59:59.871Z,8.50
2022-12-27T18:02:38.106Z,8.50
2022-12-27T18:05:07.221Z,8.50
2022-12-27T18:07:34.595Z,8.50
2022-12-27T18:10:09.430Z,8.40
2022-12-27T18:12:40.124Z,8.50
2022-12-27T18:15:12.230Z,8.40
2022-12-27T18:17:39.973Z,8.50
2022-12-27T18:20:25.254Z,8.50
2022-12-27T18:23:00.244Z,8.50
2022-12-27T18:25:36.432Z,8.40
2022-12-27T18:28:32.142Z,8.50
2022-12-27T18:31:12.138Z,8.50
2022-12-27T18:34:00.228Z,8.40
2022-12-27T18:36:40.580Z,8.40
2022-12-27T18:39:29.257Z,8.40
2022-12-27T18:41:56.007Z,8.40
2022-12-27T18:44:27.519Z,8.40
2022-12-27T18:46:56.617Z,8.40
2022-12-27T18:49:36.247Z,8.40
2022-12-27T18:52:14.733Z,8.40
2022-12-27T18:54:41.560Z,8.30
2022-12-27T18:57:26.855Z,8.20
2022-12-27T19:00:25.400Z,8.20
2022-12-27T19:02:54.485Z,8.10
2022-12-27T19:05:21.693Z,8.10
2022-12-27T19:07:52.466Z,8.00
2022-12-27T19:10:20.823Z,8.00
2022-12-27T19:12:47.503Z,8.00
2022-12-27T19:15:43.806Z,8.00
2022-12-27T19:18:28.110Z,7.90
2022-12-27T19:21:00.400Z,7.90
2022-12-27T19:23:32.306Z,7.90
2022-12-27T19:26:02.027Z,7.90
2022-12-27T19:28:29.352Z,7.90
2022-12-27T19:31:18.366Z,7.90
2022-12-27T19:33:53.234Z,8.00
2022-12-27T19:36:25.635Z,8.00
2022-12-27T19:38:53.475Z,8.00
2022-12-27T19:41:22.552Z,8.00
2022-12-27T19:43:49.366Z,8.00
2022-12-27T19:46:19.016Z,8.10
2022-12-27T19:49:01.137Z,8.10
2022-12-27T19:51:32.755Z,8.10
2022-12-27T19:53:59.491Z,8.10
2022-12-27T19:56:26.277Z,8.20
2022-12-27T19:58:53.035Z,8.20
2022-12-27T20:01:19.870Z,8.20
2022-12-27T20:03:46.680Z,8.20
2022-12-27T20:06:25.274Z,8.20
2022-12-27T20:08:54.784Z,8.20
2022-12-27T20:11:22.492Z,8.30
2022-12-27T20:13:49.355Z,8.30
2022-12-27T20:16:17.572Z,8.30
2022-12-27T20:18:44.611Z,8.30
2022-12-27T20:21:15.975Z,8.30
2022-12-27T20:23:42.691Z,8.30
2022-12-27T20:26:09.959Z,8.40
2022-12-27T20:28:36.847Z,8.40
2022-12-27T20:31:08.048Z,8.40
2022-12-27T20:33:35.462Z,8.40
2022-12-27T20:36:02.302Z,8.40
2022-12-27T20:38:29.044Z,8.40
2022-12-27T20:40:55.723Z,8.40
2022-12-27T20:43:22.501Z,8.50
2022-12-27T20:45:49.347Z,8.50
2022-12-27T20:48:16.392Z,8.50
2022-12-27T20:50:43.130Z,8.50
2022-12-27T20:53:10.247Z,8.60
2022-12-27T20:55:37.034Z,8.60
2022-12-27T20:58:03.760Z,8.60
2022-12-27T21:00:30.616Z,8.70
2022-12-27T21:02:57.841Z,8.60
2022-12-27T21:05:24.757Z,8.60
2022-12-27T21:07:51.558Z,8.60
2022-12-27T21:10:18.403Z,8.60
2022-12-27T21:12:45.197Z,8.60
2022-12-27T21:15:12.338Z,8.60
2022-12-27T21:17:39.081Z,8.60
2022-12-27T21:20:08.496Z,8.60
2022-12-27T21:22:35.178Z,8.60
2022-12-27T21:25:01.883Z,8.70
2022-12-27T21:27:28.621Z,8.70
2022-12-27T21:29:55.477Z,8.70
2022-12-27T21:32:22.256Z,8.70
2022-12-27T21:34:49.450Z,8.70
2022-12-27T21:37:16.185Z,8.70
2022-12-27T21:39:42.988Z,8.60
2022-12-27T21:42:11.014Z,8.70
2022-12-27T21:44:38.825Z,8.70
2022-12-27T21:47:06.121Z,8.70
2022-12-27T21:49:34.674Z,8.70
2022-12-27T21:52:01.571Z,8.70
2022-12-27T21:54:28.349Z,8.70
2022-12-27T21:56:55.081Z,8.60
2022-12-27T21:59:21.769Z,8.70
2022-12-27T22:01:51.384Z,8.60
2022-12-27T22:04:20.337Z,8.70
2022-12-27T22:06:47.870Z,8.70
2022-12-27T22:09:15.008Z,8.70
2022-12-27T22:11:41.804Z,8.60
2022-12-27T22:14:08.508Z,8.70
2022-12-27T22:16:36.999Z,8.70
2022-12-27T22:19:08.097Z,8.70
2022-12-27T22:21:35.572Z,8.80
2022-12-27T22:24:03.219Z,8.80
2022-12-27T22:26:32.008Z,8.80
2022-12-27T22:28:58.775Z,8.80
2022-12-27T22:31:27.840Z,8.80
2022-12-27T22:33:54.646Z,8.90
2022-12-27T22:36:22.998Z,8.90
2022-12-27T22:38:54.294Z,8.90
2022-12-27T22:41:39.882Z,8.90
2022-12-27T22:44:08.346Z,9.00
2022-12-27T22:49:21.794Z,9.00
2022-12-27T22:51:48.518Z,9.00
2022-12-27T22:54:15.178Z,9.00
2022-12-27T22:56:42.808Z,9.00
2022-12-27T22:59:11.460Z,9.10
2022-12-27T23:01:40.296Z,9.10
2022-12-27T23:04:07.501Z,9.10
2022-12-27T23:06:35.045Z,9.20
2022-12-27T23:09:01.989Z,9.20
2022-12-27T23:11:34.600Z,9.20
2022-12-27T23:14:03.428Z,9.30
2022-12-27T23:16:42.801Z,9.30
2022-12-27T23:19:09.705Z,9.40
2022-12-27T23:21:36.556Z,9.40
2022-12-27T23:24:03.637Z,9.40
2022-12-27T23:26:30.392Z,9.40
2022-12-27T23:28:57.244Z,9.40
2022-12-27T23:31:24.802Z,9.40
2022-12-27T23:33:51.735Z,9.50
2022-12-27T23:36:18.562Z,9.50
2022-12-27T23:38:45.314Z,9.60
2022-12-27T23:41:17.840Z,9.50
2022-12-27T23:43:53.739Z,9.60
2022-12-27T23:46:26.112Z,9.60
2022-12-27T23:48:52.869Z,9.60
2022-12-27T23:51:21.461Z,9.60
2022-12-27T23:53:48.165Z,9.70
2022-12-27T23:56:17.195Z,9.70
2022-12-27T23:58:44.294Z,9.80
